Time;durP1;ratioP1;P1;durP2;ratioP2;P2;SDS_P1;SDS_P2;PMS_P1;PMS_P2;Temp;Humidity;BMP_temperature;BMP_pressure;BME280_temperature;BME280_humidity;BME280_pressure;Samples;Min_cycle;Max_cycle;Signal;HPM_P1;HPM_P2
2023/01/29 00:00:08;;;;;;;2.80;2.40;;;16.90;37.20;;;;;;5126019;27;45226;-70
2023/01/29 00:02:35;;;;;;;2.55;2.13;;;16.80;37.20;;;;;;5126224;27;45314;-68
2023/01/29 00:05:03;;;;;;;2.40;2.15;;;16.80;37.20;;;;;;5126066;27;45291;-70
2023/01/29 00:07:31;;;;;;;4.10;2.38;;;16.70;37.30;;;;;;5126259;27;45234;-70
2023/01/29 00:09:58;;;;;;;3.45;2.35;;;16.70;37.30;;;;;;5125470;27;45546;-71
2023/01/29 00:12:25;;;;;;;2.63;2.40;;;16.70;37.40;;;;;;5128212;27;45402;-70
2023/01/29 00:14:52;;;;;;;2.45;2.22;;;16.60;37.40;;;;;;5129672;27;45284;-71
2023/01/29 00:17:19;;;;;;;2.92;2.72;;;16.60;37.50;;;;;;5129623;27;45510;-69
2023/01/29 00:19:46;;;;;;;2.72;2.40;;;16.50;37.50;;;;;;5129174;27;46433;-69
2023/01/29 00:22:13;;;;;;;2.95;2.60;;;16.50;37.60;;;;;;5129226;27;45393;-69
2023/01/29 00:24:43;;;;;;;3.22;2.33;;;16.50;37.70;;;;;;5129373;27;45248;-69
2023/01/29 00:27:10;;;;;;;2.70;2.22;;;16.40;37.70;;;;;;5129773;27;45297;-69
2023/01/29 00:29:36;;;;;;;2.65;2.08;;;16.40;37.80;;;;;;5129157;27;45273;-69
2023/01/29 00:32:04;;;;;;;2.70;2.45;;;16.40;37.90;;;;;;5129170;27;45286;-69
2023/01/29 00:34:30;;;;;;;2.85;2.20;;;16.40;37.90;;;;;;5129270;27;45281;-69
2023/01/29 00:37:07;;;;;;;2.88;2.20;;;16.30;37.90;;;;;;5129201;27;45221;-69
2023/01/29 00:39:37;;;;;;;2.17;1.98;;;16.30;38.00;;;;;;5129045;27;45186;-69
2023/01/29 00:44:59;;;;;;;2.35;2.15;;;16.30;38.10;;;;;;5129344;27;45370;-69
2023/01/29 00:47:33;;;;;;;2.50;2.30;;;16.30;38.20;;;;;;5129422;27;45374;-69
2023/01/29 00:50:00;;;;;;;2.60;2.22;;;16.20;38.20;;;;;;5128679;27;46707;-69
2023/01/29 00:52:27;;;;;;;2.55;2.35;;;16.30;38.20;;;;;;5128752;27;45404;-69
2023/01/29 00:54:55;;;;;;;2.38;2.17;;;16.30;38.10;;;;;;5128750;27;45157;-69
2023/01/29 00:57:24;;;;;;;2.30;2.10;;;16.40;37.90;;;;;;5128868;27;45201;-70
2023/01/29 00:59:51;;;;;;;3.22;2.65;;;16.50;37.80;;;;;;5128477;27;46325;-69
2023/01/29 01:05:02;;;;;;;2.30;2.10;;;16.60;37.40;;;;;;5129036;27;45379;-68
2023/01/29 01:07:29;;;;;;;4.55;2.00;;;16.70;37.30;;;;;;5129026;27;45532;-69
2023/01/29 01:12:41;;;;;;;2.83;2.25;;;16.90;37.10;;;;;;5128666;27;45274;-69
2023/01/29 01:15:09;;;;;;;2.33;2.08;;;16.90;37.00;;;;;;5128478;27;45271;-69
2023/01/29 01:17:35;;;;;;;1.83;1.67;;;16.90;37.00;;;;;;5128557;27;45318;-69
2023/01/29 01:20:02;;;;;;;2.53;2.10;;;16.90;37.00;;;;;;5128133;27;46644;-69
2023/01/29 01:22:30;;;;;;;2.72;2.00;;;16.80;37.00;;;;;;5127577;27;45254;-69
2023/01/29 01:24:56;;;;;;;2.40;2.20;;;16.80;37.10;;;;;;5127762;27;45233;-69
2023/01/29 01:27:24;;;;;;;3.10;2.40;;;16.80;37.10;;;;;;5128504;27;45206;-69
2023/01/29 01:29:52;;;;;;;2.67;2.47;;;16.80;37.20;;;;;;5127976;27;47426;-69
2023/01/29 01:32:19;;;;;;;2.92;2.30;;;16.70;37.20;;;;;;5127974;27;45184;-69
2023/01/29 01:34:46;;;;;;;2.67;2.20;;;16.70;37.30;;;;;;5128195;27;45204;-69
2023/01/29 01:37:13;;;;;;;2.55;2.35;;;16.60;37.30;;;;;;5128108;27;45400;-69
2023/01/29 01:39:40;;;;;;;2.40;2.20;;;16.60;37.40;;;;;;5127854;27;45550;-69
2023/01/29 01:42:09;;;;;;;2.42;2.22;;;16.60;37.50;;;;;;5127942;27;45258;-69
2023/01/29 01:44:58;;;;;;;2.35;2.15;;;16.50;37.50;;;;;;5127977;27;45242;-69
2023/01/29 01:47:34;;;;;;;2.10;1.90;;;16.50;37.60;;;;;;5128140;27;45382;-69
2023/01/29 01:50:05;;;;;;;2.17;2.00;;;16.50;37.70;;;;;;5127881;27;46673;-69
2023/01/29 01:52:32;;;;;;;1.98;1.80;;;16.50;37.70;;;;;;5127627;27;45242;-69
2023/01/29 01:54:59;;;;;;;2.50;2.30;;;16.40;37.80;;;;;;5127862;27;45203;-69
2023/01/29 01:57:26;;;;;;;2.70;2.28;;;16.40;37.80;;;;;;5127827;27;45235;-69
2023/01/29 01:59:56;;;;;;;2.30;2.10;;;16.40;37.90;;;;;;5127690;27;47620;-69
2023/01/29 02:10:38;;;;;;;2.25;1.98;;;16.30;38.00;;;;;;5124697;27;45718;-69
2023/01/29 02:13:05;;;;;;;2.15;1.95;;;16.30;38.10;;;;;;5127215;27;45294;-68
2023/01/29 02:15:33;;;;;;;2.42;2.22;;;16.20;38.10;;;;;;5127604;27;45359;-69
2023/01/29 02:18:00;;;;;;;2.40;2.20;;;16.20;38.10;;;;;;5127657;27;45185;-69
2023/01/29 02:20:28;;;;;;;2.22;2.03;;;16.30;38.10;;;;;;5127122;27;45278;-69
2023/01/29 02:23:26;;;;;;;2.40;2.20;;;16.40;37.90;;;;;;5127564;27;45457;-69
2023/01/29 02:26:26;;;;;;;2.38;2.17;;;16.50;37.70;;;;;;5101462;27;45355;-69
2023/01/29 02:28:54;;;;;;;2.50;2.00;;;16.60;37.50;;;;;;5063478;28;45662;-69
2023/01/29 02:31:27;;;;;;;3.67;2.15;;;16.60;37.30;;;;;;5113983;27;45264;-69
2023/01/29 02:33:59;;;;;;;2.42;2.05;;;16.70;37.20;;;;;;5126814;27;45183;-69
2023/01/29 02:36:31;;;;;;;1.98;1.80;;;16.80;37.10;;;;;;5127176;27;45230;-69
2023/01/29 02:39:01;;;;;;;2.20;2.00;;;16.80;36.90;;;;;;5127269;27;45356;-69
2023/01/29 02:41:31;;;;;;;2.08;1.98;;;16.90;36.90;;;;;;5126916;27;45207;-69
2023/01/29 02:44:03;;;;;;;2.13;1.92;;;16.80;36.80;;;;;;5126970;27;45213;-69
2023/01/29 02:46:32;;;;;;;2.75;2.10;;;16.80;36.80;;;;;;5127435;27;45410;-69
2023/01/29 02:48:59;;;;;;;2.72;2.05;;;16.80;36.90;;;;;;5127163;27;45533;-69
2023/01/29 02:51:30;;;;;;;2.15;1.95;;;16.80;36.90;;;;;;5126787;27;45460;-69
2023/01/29 02:54:02;;;;;;;2.47;2.28;;;16.70;36.90;;;;;;5126721;27;45308;-69
2023/01/29 02:56:30;;;;;;;2.10;1.90;;;16.70;37.00;;;;;;5127055;27;45182;-69
2023/01/29 02:59:00;;;;;;;2.70;2.10;;;16.70;37.00;;;;;;5127007;27;45628;-68
2023/01/29 03:01:29;;;;;;;2.38;2.17;;;16.60;37.10;;;;;;5126652;27;46583;-68
2023/01/29 03:03:57;;;;;;;2.38;2.13;;;16.60;37.70;;;;;;5126581;27;45387;-70
2023/01/29 03:06:25;;;;;;;1.80;1.70;;;16.60;37.10;;;;;;5127123;27;45389;-68
2023/01/29 03:08:53;;;;;;;3.33;2.13;;;16.50;37.20;;;;;;5126611;27;45546;-69
2023/01/29 03:11:20;;;;;;;2.65;2.13;;;16.50;37.20;;;;;;5126665;27;46601;-70
2023/01/29 03:13:48;;;;;;;2.20;1.95;;;16.50;37.30;;;;;;5126467;27;45289;-69
2023/01/29 03:16:20;;;;;;;2.70;2.17;;;16.50;37.30;;;;;;5126653;27;45274;-68
2023/01/29 03:18:50;;;;;;;3.83;1.85;;;16.40;37.30;;;;;;5126727;27;45407;-69
2023/01/29 03:32:20;;;;;;;2.08;1.88;;;16.20;37.50;;;;;;5123596;27;45170;-69
2023/01/29 03:34:50;;;;;;;2.53;2.00;;;16.20;37.70;;;;;;5126191;27;45355;-70
2023/01/29 03:37:19;;;;;;;2.65;2.03;;;16.10;37.70;;;;;;5126370;27;45289;-70
2023/01/29 03:39:45;;;;;;;3.00;2.20;;;16.10;37.70;;;;;;5126350;27;45352;-70
2023/01/29 03:42:16;;;;;;;1.92;1.83;;;16.10;37.80;;;;;;5126064;27;46694;-70
2023/01/29 03:44:46;;;;;;;2.80;2.40;;;16.10;37.70;;;;;;5126570;27;45251;-70
2023/01/29 03:47:17;;;;;;;2.00;1.90;;;16.20;37.50;;;;;;5128499;27;45244;-70
2023/01/29 03:49:51;;;;;;;1.95;1.85;;;16.30;37.40;;;;;;5130039;27;45179;-70
2023/01/29 03:52:20;;;;;;;2.50;2.30;;;16.30;37.30;;;;;;5129420;27;46612;-70
2023/01/29 03:54:51;;;;;;;3.17;2.40;;;16.40;37.10;;;;;;5129787;27;45314;-70
2023/01/29 03:57:19;;;;;;;2.35;2.20;;;16.40;37.00;;;;;;5129984;27;45229;-69
2023/01/29 03:59:48;;;;;;;2.10;1.90;;;16.50;36.90;;;;;;5127177;27;45265;-70
2023/01/29 04:02:18;;;;;;;2.40;2.20;;;16.50;36.70;;;;;;5129519;27;46385;-70
2023/01/29 04:04:46;;;;;;;2.17;1.90;;;16.60;36.70;;;;;;5129359;27;45179;-70
2023/01/29 04:07:14;;;;;;;2.03;1.83;;;16.60;36.50;;;;;;5129659;27;45283;-70
2023/01/29 04:09:44;;;;;;;2.00;1.77;;;16.70;36.50;;;;;;5129493;27;45367;-70
2023/01/29 04:12:12;;;;;;;2.00;1.90;;;16.70;36.50;;;;;;5129250;27;45798;-70
2023/01/29 04:14:39;;;;;;;2.10;1.85;;;16.70;36.50;;;;;;5129400;27;45422;-70
2023/01/29 04:17:09;;;;;;;3.05;2.08;;;16.70;36.50;;;;;;5129529;27;45293;-70
2023/01/29 04:19:36;;;;;;;2.30;2.10;;;16.60;36.50;;;;;;5129510;27;45443;-69
2023/01/29 04:22:06;;;;;;;2.10;1.90;;;16.60;36.50;;;;;;5129115;27;45294;-69
2023/01/29 04:24:33;;;;;;;2.20;2.00;;;16.60;36.60;;;;;;5129076;27;45236;-69
2023/01/29 04:27:07;;;;;;;2.08;1.98;;;16.50;36.60;;;;;;5129205;27;45189;-69
2023/01/29 04:29:43;;;;;;;2.10;1.92;;;16.50;36.70;;;;;;5129511;27;45224;-69
2023/01/29 04:32:14;;;;;;;2.55;2.10;;;16.50;36.80;;;;;;5128959;27;46538;-69
2023/01/29 04:34:50;;;;;;;2.25;2.05;;;16.40;36.80;;;;;;5129016;27;45331;-69
2023/01/29 04:37:22;;;;;;;2.33;2.13;;;16.40;36.90;;;;;;5129090;27;45231;-69
2023/01/29 04:39:59;;;;;;;1.75;1.65;;;16.30;36.90;;;;;;5129257;27;45434;-69
2023/01/29 04:42:29;;;;;;;2.30;2.10;;;16.30;37.00;;;;;;5128780;27;45378;-69
2023/01/29 04:44:59;;;;;;;2.60;2.10;;;16.30;37.10;;;;;;5128823;27;45280;-69
2023/01/29 04:47:29;;;;;;;2.85;1.77;;;16.30;37.20;;;;;;5129266;27;45184;-69
2023/01/29 04:50:00;;;;;;;2.85;2.05;;;16.20;37.20;;;;;;5129053;27;45398;-69
2023/01/29 04:52:33;;;;;;;2.17;2.00;;;16.10;37.30;;;;;;5128462;27;46400;-69
2023/01/29 04:55:03;;;;;;;2.15;1.90;;;16.10;37.30;;;;;;5128690;27;45434;-69
2023/01/29 04:57:33;;;;;;;2.20;2.03;;;16.10;37.40;;;;;;5128780;27;45247;-70
2023/01/29 05:00:02;;;;;;;2.75;1.88;;;16.10;37.50;;;;;;5128994;27;45514;-69
2023/01/29 05:02:29;;;;;;;2.25;1.92;;;16.10;37.40;;;;;;5128507;27;46226;-69
2023/01/29 05:04:56;;;;;;;2.40;2.20;;;16.10;37.30;;;;;;5128443;27;45263;-69
2023/01/29 05:07:23;;;;;;;2.42;1.90;;;16.20;37.10;;;;;;5128767;27;45283;-69
2023/01/29 05:09:51;;;;;;;1.95;1.80;;;16.30;37.00;;;;;;5128624;27;45795;-68
2023/01/29 05:12:18;;;;;;;1.70;1.60;;;16.40;36.90;;;;;;5128339;27;46407;-68
2023/01/29 05:14:45;;;;;;;2.17;1.92;;;16.40;36.70;;;;;;5128163;27;45348;-69
2023/01/29 05:17:14;;;;;;;2.10;2.00;;;16.50;36.70;;;;;;5128423;27;45329;-68
2023/01/29 05:19:41;;;;;;;2.58;2.38;;;16.60;36.50;;;;;;5128547;27;45242;-69
2023/01/29 05:22:09;;;;;;;2.25;2.00;;;16.60;36.40;;;;;;5128131;27;46404;-69
2023/01/29 05:24:36;;;;;;;2.47;2.05;;;16.60;36.30;;;;;;5128389;27;45290;-69
2023/01/29 05:29:49;;;;;;;2.25;1.90;;;16.70;36.30;;;;;;5128658;27;45291;-69
2023/01/29 05:32:16;;;;;;;1.83;1.73;;;16.60;36.30;;;;;;5128200;27;45440;-68
2023/01/29 05:34:42;;;;;;;1.85;1.73;;;16.70;36.40;;;;;;5127940;27;45286;-69
2023/01/29 05:37:09;;;;;;;2.75;2.15;;;16.60;36.40;;;;;;5128034;27;45303;-69
2023/01/29 05:39:36;;;;;;;2.20;2.00;;;16.60;36.40;;;;;;5128129;27;45458;-69
2023/01/29 05:42:04;;;;;;;1.80;1.70;;;16.50;36.50;;;;;;5128017;27;45242;-69
2023/01/29 05:44:31;;;;;;;2.75;2.22;;;16.50;36.60;;;;;;5127883;27;45258;-69
2023/01/29 05:47:01;;;;;;;1.85;1.65;;;16.40;36.60;;;;;;5128064;27;45205;-69
2023/01/29 05:49:28;;;;;;;2.28;2.08;;;16.40;36.70;;;;;;5128187;27;45456;-69
2023/01/29 05:51:55;;;;;;;2.20;2.00;;;16.40;36.80;;;;;;5127601;27;46718;-69
2023/01/29 05:54:21;;;;;;;1.98;1.88;;;16.30;36.80;;;;;;5127985;27;45243;-69
2023/01/29 05:56:48;;;;;;;1.95;1.85;;;16.30;36.90;;;;;;5128005;27;45303;-69
2023/01/29 05:59:17;;;;;;;2.40;2.20;;;16.20;36.90;;;;;;5127960;27;45323;-69
2023/01/29 06:01:43;;;;;;;1.98;1.88;;;16.20;37.00;;;;;;5127531;27;46434;-69
2023/01/29 06:04:10;;;;;;;2.25;1.80;;;16.10;37.10;;;;;;5127743;27;45473;-69
2023/01/29 06:06:37;;;;;;;2.30;2.10;;;16.10;37.20;;;;;;5127605;27;45234;-69
2023/01/29 06:09:04;;;;;;;3.03;1.90;;;16.10;37.20;;;;;;5126702;27;45206;-69
2023/01/29 06:11:31;;;;;;;2.25;2.05;;;16.00;37.30;;;;;;5127580;27;45219;-69
2023/01/29 06:13:58;;;;;;;2.25;2.03;;;16.10;37.20;;;;;;5127293;27;45322;-69
2023/01/29 06:16:26;;;;;;;2.17;1.98;;;16.20;37.10;;;;;;5127589;27;45299;-69
2023/01/29 06:18:53;;;;;;;2.83;2.15;;;16.20;37.00;;;;;;5127767;27;45472;-70
2023/01/29 06:21:20;;;;;;;2.10;1.90;;;16.30;36.80;;;;;;5127223;27;45531;-70
2023/01/29 06:23:46;;;;;;;2.58;2.15;;;16.40;36.70;;;;;;5127297;27;45154;-70
2023/01/29 06:26:14;;;;;;;2.42;2.17;;;16.40;36.60;;;;;;5127328;27;45291;-70
2023/01/29 06:28:41;;;;;;;2.03;1.88;;;16.50;36.50;;;;;;5127385;27;45422;-70
2023/01/29 06:31:08;;;;;;;1.90;1.80;;;16.60;36.40;;;;;;5127008;27;46418;-70
2023/01/29 06:33:36;;;;;;;2.53;1.85;;;16.60;36.20;;;;;;5127018;27;45235;-68
2023/01/29 06:36:04;;;;;;;2.17;1.92;;;16.70;36.20;;;;;;5127217;27;45264;-70
2023/01/29 06:38:31;;;;;;;2.28;2.08;;;16.70;36.20;;;;;;5127373;27;45440;-70
2023/01/29 06:40:58;;;;;;;2.60;2.03;;;16.60;36.80;;;;;;5127180;27;45597;-70
2023/01/29 06:43:25;;;;;;;2.10;2.00;;;16.60;36.20;;;;;;5127024;27;45313;-70
2023/01/29 06:45:52;;;;;;;2.20;2.03;;;16.60;36.20;;;;;;5127071;27;45342;-70
2023/01/29 06:48:19;;;;;;;1.88;1.73;;;16.60;36.30;;;;;;5127154;27;45270;-70
2023/01/29 06:50:48;;;;;;;4.22;2.40;;;16.50;36.30;;;;;;5127002;27;45412;-71
2023/01/29 06:53:15;;;;;;;2.20;1.98;;;16.50;36.40;;;;;;5126489;27;45170;-71
2023/01/29 06:55:42;;;;;;;2.25;2.00;;;16.40;36.40;;;;;;5126997;27;45539;-70
2023/01/29 06:58:09;;;;;;;2.83;1.83;;;16.40;36.50;;;;;;5126855;27;45482;-70
2023/01/29 07:00:36;;;;;;;2.17;1.98;;;16.30;36.60;;;;;;5126588;27;45404;-70
2023/01/29 07:03:03;;;;;;;2.10;1.90;;;16.30;36.60;;;;;;5126589;27;45130;-71
2023/01/29 07:05:30;;;;;;;2.55;1.92;;;16.20;36.70;;;;;;5126809;27;45141;-70
2023/01/29 07:07:58;;;;;;;2.42;2.20;;;16.20;36.80;;;;;;5126920;27;45296;-71
2023/01/29 07:10:25;;;;;;;2.92;2.00;;;16.20;36.80;;;;;;5126286;27;46389;-71
2023/01/29 07:12:52;;;;;;;2.30;2.10;;;16.10;36.90;;;;;;5126624;27;45270;-71
2023/01/29 07:15:20;;;;;;;2.30;2.10;;;16.10;37.00;;;;;;5126721;27;45250;-71
2023/01/29 07:17:56;;;;;;;2.53;2.10;;;16.10;37.00;;;;;;5126822;27;45252;-70
2023/01/29 07:20:24;;;;;;;2.10;1.90;;;16.10;37.00;;;;;;5126229;27;45459;-70
2023/01/29 07:22:51;;;;;;;1.90;1.80;;;16.10;36.90;;;;;;5129577;27;45374;-68
2023/01/29 07:25:19;;;;;;;2.28;2.10;;;16.20;36.70;;;;;;5130146;27;45235;-70
2023/01/29 07:27:46;;;;;;;2.20;2.00;;;16.30;36.60;;;;;;5130629;27;45474;-70
2023/01/29 07:30:13;;;;;;;1.85;1.73;;;16.30;36.40;;;;;;5129841;27;46562;-70
2023/01/29 07:32:40;;;;;;;2.30;2.10;;;16.40;36.30;;;;;;5129864;27;45309;-70
2023/01/29 07:35:08;;;;;;;2.10;1.85;;;16.50;36.20;;;;;;5129961;27;45309;-71
2023/01/29 07:37:35;;;;;;;2.13;1.92;;;16.60;36.00;;;;;;5130258;27;45340;-70
2023/01/29 07:40:03;;;;;;;2.47;2.08;;;16.60;35.80;;;;;;5129733;27;45204;-70
2023/01/29 07:42:32;;;;;;;2.33;2.13;;;16.70;35.80;;;;;;5129878;27;45290;-70
2023/01/29 07:44:58;;;;;;;1.90;1.80;;;16.70;35.70;;;;;;5129919;27;45189;-71
2023/01/29 07:47:25;;;;;;;2.28;2.08;;;16.70;35.70;;;;;;5127300;27;45235;-70
2023/01/29 07:49:52;;;;;;;2.05;1.77;;;16.60;35.70;;;;;;5129713;27;45257;-70
2023/01/29 07:52:19;;;;;;;2.05;1.88;;;16.60;35.80;;;;;;5129733;27;45316;-70
2023/01/29 07:54:46;;;;;;;3.67;2.08;;;16.60;35.90;;;;;;5129652;27;45310;-70
2023/01/29 07:57:13;;;;;;;2.40;2.20;;;16.50;36.50;;;;;;5129985;27;45227;-70
2023/01/29 07:59:41;;;;;;;2.63;1.95;;;16.50;36.00;;;;;;5129841;27;45282;-70
2023/01/29 08:02:09;;;;;;;1.98;1.88;;;16.40;36.10;;;;;;5129577;27;45313;-70
2023/01/29 08:04:35;;;;;;;2.22;2.03;;;16.40;36.20;;;;;;5129631;27;45336;-70
2023/01/29 08:07:03;;;;;;;2.25;1.98;;;16.30;36.60;;;;;;5129875;27;45399;-70
2023/01/29 08:09:30;;;;;;;2.70;2.40;;;16.30;36.30;;;;;;5129253;27;46482;-70
2023/01/29 08:11:57;;;;;;;2.00;1.90;;;16.20;36.40;;;;;;5129526;27;45207;-70
2023/01/29 08:14:24;;;;;;;2.47;2.13;;;16.20;36.50;;;;;;5126990;27;45327;-70
2023/01/29 08:16:52;;;;;;;3.05;2.08;;;16.20;36.50;;;;;;5129742;27;45370;-69
2023/01/29 08:19:19;;;;;;;1.73;1.63;;;16.10;36.60;;;;;;5129433;27;47331;-69
2023/01/29 08:21:46;;;;;;;1.90;1.67;;;16.10;36.70;;;;;;5129285;27;45250;-69
2023/01/29 08:24:13;;;;;;;2.20;2.00;;;16.10;36.70;;;;;;5129281;27;45407;-69
2023/01/29 08:26:40;;;;;;;2.17;1.98;;;16.10;36.80;;;;;;5129539;27;45244;-69
2023/01/29 08:29:07;;;;;;;2.13;1.92;;;16.10;36.70;;;;;;5129104;27;45476;-69
2023/01/29 08:31:34;;;;;;;2.33;2.13;;;16.20;36.50;;;;;;5128956;27;45410;-69
2023/01/29 08:34:02;;;;;;;2.30;2.00;;;16.30;36.50;;;;;;5128753;27;45213;-69
2023/01/29 08:36:29;;;;;;;2.13;2.03;;;16.40;36.30;;;;;;5129354;27;45294;-69
2023/01/29 08:38:55;;;;;;;3.00;2.30;;;16.40;36.20;;;;;;5128784;27;45488;-70
2023/01/29 08:41:22;;;;;;;2.30;2.08;;;16.50;36.10;;;;;;5128947;27;45370;-69
2023/01/29 08:43:49;;;;;;;2.15;1.90;;;16.60;36.00;;;;;;5129050;27;45240;-69
2023/01/29 08:46:16;;;;;;;2.38;1.92;;;16.70;35.90;;;;;;5129459;27;45341;-69
2023/01/29 08:48:43;;;;;;;3.13;2.30;;;16.70;35.80;;;;;;5128710;27;45444;-69
2023/01/29 08:51:11;;;;;;;2.42;1.95;;;16.70;35.70;;;;;;5128636;27;45370;-69
2023/01/29 08:53:38;;;;;;;2.47;2.28;;;16.70;35.80;;;;;;5128877;27;45376;-69
2023/01/29 08:56:05;;;;;;;2.30;1.92;;;16.70;35.80;;;;;;5128919;27;45263;-68
2023/01/29 08:58:32;;;;;;;2.05;1.90;;;16.60;35.80;;;;;;5128580;27;46314;-69
2023/01/29 09:01:05;;;;;;;2.47;2.10;;;16.60;35.90;;;;;;5128499;27;45310;-68
2023/01/29 09:03:32;;;;;;;2.22;1.90;;;16.60;36.00;;;;;;5128591;27;45263;-68
2023/01/29 09:05:59;;;;;;;2.08;1.90;;;16.50;36.10;;;;;;5128754;27;45403;-68
2023/01/29 09:08:28;;;;;;;2.28;1.90;;;16.50;36.20;;;;;;5128114;27;45373;-69
2023/01/29 09:10:55;;;;;;;2.20;2.00;;;16.50;36.30;;;;;;5128371;27;45231;-68
2023/01/29 09:13:21;;;;;;;2.30;2.10;;;16.40;36.30;;;;;;5128610;27;45224;-68
2023/01/29 09:15:48;;;;;;;2.13;1.92;;;16.40;36.30;;;;;;5128520;27;45431;-68
2023/01/29 09:18:15;;;;;;;2.47;2.28;;;16.40;36.40;;;;;;5128343;27;46434;-68
2023/01/29 09:20:42;;;;;;;2.10;1.90;;;16.30;36.50;;;;;;5128256;27;45379;-69
2023/01/29 09:23:09;;;;;;;2.03;1.83;;;16.30;36.60;;;;;;5128410;27;45249;-68
2023/01/29 09:25:37;;;;;;;2.30;2.10;;;16.30;36.70;;;;;;5128603;27;45363;-68
2023/01/29 09:28:05;;;;;;;2.28;2.08;;;16.20;36.70;;;;;;5128163;27;46392;-69
2023/01/29 09:30:33;;;;;;;2.25;1.98;;;16.20;36.80;;;;;;5128149;27;45287;-68
2023/01/29 09:33:00;;;;;;;2.85;2.40;;;16.20;36.90;;;;;;5128054;27;45280;-69
2023/01/29 09:35:27;;;;;;;2.20;2.10;;;16.10;36.90;;;;;;5128211;27;45219;-69
2023/01/29 09:37:54;;;;;;;2.25;2.05;;;16.10;36.90;;;;;;5127979;27;46734;-68
2023/01/29 09:40:25;;;;;;;2.33;1.80;;;16.20;36.90;;;;;;5127872;27;45355;-69
2023/01/29 09:42:55;;;;;;;1.88;1.77;;;16.30;36.70;;;;;;5127902;27;45244;-69
2023/01/29 09:45:24;;;;;;;2.05;1.85;;;16.30;36.60;;;;;;5127109;27;45424;-69
2023/01/29 09:47:51;;;;;;;2.60;2.10;;;16.50;36.50;;;;;;5127698;27;46575;-69
2023/01/29 09:50:19;;;;;;;2.58;2.38;;;16.50;36.30;;;;;;5127787;27;45225;-69
2023/01/29 09:52:48;;;;;;;2.13;1.92;;;16.60;36.20;;;;;;5127846;27;45318;-69
2023/01/29 09:55:18;;;;;;;2.10;1.90;;;16.70;36.00;;;;;;5128089;27;45439;-69
2023/01/29 09:57:47;;;;;;;2.10;2.00;;;16.80;35.90;;;;;;5127526;27;47335;-69
2023/01/29 10:00:17;;;;;;;1.98;1.88;;;16.80;35.80;;;;;;5127577;27;45275;-69
2023/01/29 10:02:54;;;;;;;3.25;1.90;;;16.90;35.80;;;;;;5127571;27;45327;-69
2023/01/29 10:05:40;;;;;;;2.25;2.05;;;16.90;35.70;;;;;;5127865;27;45407;-70
2023/01/29 10:08:50;;;;;;;2.38;1.85;;;16.90;35.70;;;;;;5127449;27;45240;-71
2023/01/29 10:11:26;;;;;;;2.15;2.05;;;16.90;35.70;;;;;;5110828;27;45296;-71
2023/01/29 10:13:59;;;;;;;2.10;1.90;;;16.90;35.80;;;;;;5127709;27;45239;-71
2023/01/29 10:16:35;;;;;;;1.95;1.85;;;16.90;35.80;;;;;;5127591;27;45224;-69
2023/01/29 10:19:15;;;;;;;2.47;2.13;;;16.90;35.80;;;;;;5127275;27;45267;-70
2023/01/29 10:22:04;;;;;;;2.50;2.30;;;16.90;35.80;;;;;;5127301;27;45249;-71
2023/01/29 10:24:35;;;;;;;2.30;2.10;;;16.90;35.90;;;;;;5127381;27;45264;-69
2023/01/29 10:27:03;;;;;;;2.30;2.00;;;16.90;35.90;;;;;;5127756;27;45275;-69
2023/01/29 10:29:29;;;;;;;2.03;1.90;;;16.90;35.90;;;;;;5127115;27;46696;-71
2023/01/29 10:32:03;;;;;;;2.85;2.10;;;16.90;36.00;;;;;;5127301;27;45186;-71
2023/01/29 10:34:31;;;;;;;2.45;2.25;;;16.90;36.00;;;;;;5127165;27;45262;-70
2023/01/29 10:36:58;;;;;;;2.15;1.95;;;16.90;36.00;;;;;;5127724;27;45184;-70
2023/01/29 10:39:25;;;;;;;2.05;1.85;;;16.90;36.00;;;;;;5126900;27;45376;-70
2023/01/29 10:42:02;;;;;;;2.42;2.13;;;16.90;36.10;;;;;;5127265;27;45331;-70
2023/01/29 10:44:36;;;;;;;2.42;2.03;;;16.90;36.00;;;;;;5127203;27;45343;-70
2023/01/29 10:47:22;;;;;;;2.40;2.20;;;16.90;36.00;;;;;;5127292;27;45244;-70
2023/01/29 10:50:00;;;;;;;1.83;1.73;;;16.90;36.00;;;;;;5124118;27;46101;-70
2023/01/29 10:52:35;;;;;;;2.17;2.00;;;16.90;36.00;;;;;;5126894;27;45235;-70
2023/01/29 10:55:06;;;;;;;2.10;1.98;;;16.90;36.00;;;;;;5126564;27;45215;-70
2023/01/29 10:57:51;;;;;;;2.85;2.17;;;17.00;36.00;;;;;;5127195;27;45544;-70
2023/01/29 11:00:20;;;;;;;3.05;2.05;;;17.00;35.90;;;;;;5125534;27;47246;-70
2023/01/29 11:02:49;;;;;;;2.65;2.20;;;17.10;35.90;;;;;;5126823;27;45223;-70
2023/01/29 11:05:23;;;;;;;2.03;1.80;;;17.10;35.80;;;;;;5126630;27;45292;-70
2023/01/29 11:08:03;;;;;;;2.30;2.10;;;17.10;35.80;;;;;;5126525;27;45567;-70
2023/01/29 11:10:30;;;;;;;2.17;2.00;;;17.10;35.90;;;;;;5126059;27;45232;-70
2023/01/29 11:12:57;;;;;;;2.45;1.70;;;17.00;36.00;;;;;;5126538;27;45246;-70
2023/01/29 11:15:26;;;;;;;1.90;1.80;;;16.90;36.20;;;;;;5126559;27;45218;-70
2023/01/29 11:18:04;;;;;;;2.33;2.13;;;16.80;36.30;;;;;;5126724;27;45285;-70
2023/01/29 11:20:32;;;;;;;2.35;2.15;;;16.70;36.40;;;;;;5126527;27;46735;-70
2023/01/29 11:22:59;;;;;;;2.13;1.98;;;16.70;36.50;;;;;;5126641;27;45271;-70
2023/01/29 11:25:27;;;;;;;1.75;1.65;;;16.70;36.50;;;;;;5126694;27;45292;-70
2023/01/29 11:27:55;;;;;;;2.20;1.75;;;16.70;36.40;;;;;;5127038;27;45272;-70
2023/01/29 11:30:23;;;;;;;2.00;1.88;;;16.80;36.30;;;;;;5126301;27;46369;-70
2023/01/29 11:32:52;;;;;;;2.10;1.85;;;17.00;36.20;;;;;;5126292;27;45244;-70
2023/01/29 11:35:22;;;;;;;1.88;1.77;;;17.10;35.90;;;;;;5126372;27;45466;-70
2023/01/29 11:37:49;;;;;;;1.70;1.60;;;17.30;35.70;;;;;;5126691;27;45192;-70
2023/01/29 11:40:40;;;;;;;1.65;1.55;;;17.40;35.50;;;;;;5126060;27;46349;-70
2023/01/29 11:43:18;;;;;;;1.75;1.42;;;17.50;35.40;;;;;;5126279;27;45152;-70
2023/01/29 11:45:45;;;;;;;2.00;1.80;;;17.50;35.30;;;;;;5126286;27;45260;-70
2023/01/29 11:48:14;;;;;;;1.85;1.75;;;17.60;35.30;;;;;;5126469;27;45237;-70
2023/01/29 11:50:42;;;;;;;1.75;1.65;;;17.50;35.20;;;;;;5126028;27;46426;-70
2023/01/29 11:53:21;;;;;;;1.60;1.50;;;17.50;35.20;;;;;;5126280;27;45146;-70
2023/01/29 11:55:48;;;;;;;2.22;1.55;;;17.50;35.30;;;;;;5126000;27;45302;-70
2023/01/29 11:58:17;;;;;;;1.80;1.70;;;17.50;35.40;;;;;;5126235;27;45187;-70
2023/01/29 12:00:46;;;;;;;1.73;1.63;;;17.50;35.40;;;;;;5125843;27;46420;-70
2023/01/29 12:03:15;;;;;;;2.05;1.60;;;17.40;35.50;;;;;;5126041;27;45317;-70
2023/01/29 12:05:53;;;;;;;2.05;1.83;;;17.40;35.50;;;;;;5126108;27;45184;-69
2023/01/29 12:08:21;;;;;;;2.53;1.50;;;17.40;35.50;;;;;;5128180;27;45532;-69
2023/01/29 12:10:48;;;;;;;1.58;1.48;;;17.40;35.60;;;;;;5129233;27;45525;-70
2023/01/29 12:13:25;;;;;;;1.85;1.63;;;17.30;35.60;;;;;;5129526;27;45204;-69
2023/01/29 12:16:07;;;;;;;1.83;1.63;;;17.30;35.60;;;;;;5129298;27;45195;-70
2023/01/29 12:18:36;;;;;;;1.98;1.52;;;17.30;35.60;;;;;;5129419;27;45417;-70
2023/01/29 12:21:05;;;;;;;1.77;1.35;;;17.30;35.60;;;;;;5129217;27;45231;-70
2023/01/29 12:23:36;;;;;;;1.50;1.40;;;17.30;35.60;;;;;;5129288;27;45334;-70
2023/01/29 12:26:04;;;;;;;1.77;1.60;;;17.30;35.60;;;;;;5129293;27;45213;-69
2023/01/29 12:28:39;;;;;;;1.60;1.50;;;17.30;35.60;;;;;;5129782;27;45363;-69
2023/01/29 12:31:12;;;;;;;1.52;1.42;;;17.30;35.60;;;;;;5129071;27;46752;-69
2023/01/29 12:33:41;;;;;;;1.60;1.50;;;17.30;35.60;;;;;;5129301;27;45320;-70
2023/01/29 12:36:13;;;;;;;1.80;1.70;;;17.40;35.60;;;;;;5129027;27;45264;-70
2023/01/29 12:38:40;;;;;;;2.05;1.60;;;17.40;35.50;;;;;;5129310;27;45445;-70
2023/01/29 12:41:20;;;;;;;1.38;1.27;;;17.40;35.50;;;;;;5128918;27;45224;-70
2023/01/29 12:43:52;;;;;;;1.52;1.42;;;17.40;35.50;;;;;;5128991;27;46307;-68
2023/01/29 12:46:22;;;;;;;1.65;1.55;;;17.40;35.50;;;;;;5129048;27;45370;-69
2023/01/29 12:48:49;;;;;;;2.10;1.35;;;17.40;35.60;;;;;;5129163;27;45438;-69
2023/01/29 12:51:18;;;;;;;1.48;1.38;;;17.40;35.70;;;;;;5128683;27;45402;-70
2023/01/29 12:53:48;;;;;;;1.92;1.73;;;17.40;36.20;;;;;;5128830;27;45195;-69
2023/01/29 12:56:16;;;;;;;1.40;1.30;;;17.40;35.50;;;;;;5124033;27;45200;-71
2023/01/29 12:58:45;;;;;;;1.60;1.50;;;17.40;35.50;;;;;;5119415;27;45603;-69
2023/01/29 13:01:14;;;;;;;1.83;1.30;;;17.40;35.60;;;;;;5129723;27;48686;-70
2023/01/29 13:03:46;;;;;;;2.38;1.70;;;17.40;35.60;;;;;;5121683;27;45438;-72
2023/01/29 13:06:14;;;;;;;1.77;1.30;;;17.40;35.60;;;;;;5117209;27;45225;-70
2023/01/29 13:08:45;;;;;;;1.70;1.48;;;17.40;35.60;;;;;;5112581;27;45531;-70
2023/01/29 13:11:15;;;;;;;2.90;1.52;;;17.40;35.60;;;;;;5141691;27;45593;-70
2023/01/29 13:13:43;;;;;;;2.78;1.63;;;17.40;35.60;;;;;;5124017;27;45903;-70
2023/01/29 13:16:11;;;;;;;2.58;1.38;;;17.40;35.50;;;;;;5120308;27;45382;-69
2023/01/29 13:18:41;;;;;;;2.22;1.65;;;17.50;35.60;;;;;;5112830;27;45590;-69
2023/01/29 13:21:15;;;;;;;3.10;1.60;;;17.50;35.50;;;;;;5127383;27;45424;-68
2023/01/29 13:23:45;;;;;;;3.92;1.30;;;17.50;35.60;;;;;;5117258;27;45449;-70
2023/01/29 13:26:12;;;;;;;3.25;1.60;;;17.40;35.60;;;;;;5116735;27;45141;-68
2023/01/29 13:28:39;;;;;;;1.50;1.40;;;17.40;35.80;;;;;;5119933;27;45228;-70